createdAt,value
2022-10-06T00:01:19.143Z,7.80
2022-10-06T00:03:47.304Z,8.10
2022-10-06T00:06:19.342Z,9.50
2022-10-06T00:08:48.437Z,12.00
2022-10-06T00:11:17.098Z,9.50
2022-10-06T00:13:46.013Z,10.80
2022-10-06T00:16:18.626Z,10.30
2022-10-06T00:18:47.649Z,11.20
2022-10-06T00:21:16.187Z,11.10
2022-10-06T00:23:44.913Z,9.60
2022-10-06T00:26:16.434Z,8.40
2022-10-06T00:28:47.497Z,8.50
2022-10-06T00:31:19.269Z,11.20
2022-10-06T00:33:49.346Z,9.80
2022-10-06T00:36:17.788Z,8.90
2022-10-06T00:38:47.815Z,10.30
2022-10-06T00:41:17.782Z,9.00
2022-10-06T00:43:48.064Z,8.80
2022-10-06T00:49:13.099Z,7.70
2022-10-06T00:51:45.708Z,6.80
2022-10-06T00:54:14.589Z,8.40
2022-10-06T00:56:42.496Z,7.70
2022-10-06T00:59:13.079Z,6.50
2022-10-06T01:01:47.260Z,8.30
2022-10-06T01:04:17.907Z,8.40
2022-10-06T01:09:21.483Z,8.00
2022-10-06T01:11:54.477Z,8.90
2022-10-06T01:14:26.571Z,8.40
2022-10-06T01:17:14.332Z,6.60
2022-10-06T01:19:58.977Z,8.20
2022-10-06T01:22:39.156Z,8.40
2022-10-06T01:25:10.597Z,10.90
2022-10-06T01:27:42.797Z,10.20
2022-10-06T01:30:16.388Z,8.20
2022-10-06T01:32:45.960Z,8.20
2022-10-06T01:35:14.139Z,7.20
2022-10-06T01:37:42.195Z,7.30
2022-10-06T01:40:10.550Z,6.40
2022-10-06T01:42:39.117Z,7.30
2022-10-06T01:45:08.731Z,8.30
2022-10-06T01:47:37.836Z,7.50
2022-10-06T01:50:09.060Z,7.10
2022-10-06T01:52:37.607Z,7.50
2022-10-06T01:55:06.432Z,6.90
2022-10-06T02:00:11.016Z,6.50
2022-10-06T02:02:42.725Z,7.80
2022-10-06T02:05:11.497Z,7.20
2022-10-06T02:07:42.786Z,8.50
2022-10-06T02:10:14.319Z,9.90
2022-10-06T02:12:43.815Z,7.20
2022-10-06T02:15:11.485Z,7.20
2022-10-06T02:17:40.363Z,8.10
2022-10-06T02:20:09.435Z,7.90
2022-10-06T02:22:40.452Z,10.80
2022-10-06T02:25:08.896Z,10.00
2022-10-06T02:27:38.883Z,10.30
2022-10-06T02:30:08.502Z,11.20
2022-10-06T02:32:39.834Z,10.20
2022-10-06T02:35:10.111Z,10.80
2022-10-06T02:37:38.457Z,9.00
2022-10-06T02:40:08.857Z,8.40
2022-10-06T02:42:38.178Z,7.20
2022-10-06T02:45:08.346Z,7.50
2022-10-06T02:47:37.951Z,9.30
2022-10-06T02:50:08.598Z,8.80
2022-10-06T02:52:40.925Z,8.30
2022-10-06T02:55:10.033Z,10.50
2022-10-06T02:57:39.179Z,9.00
2022-10-06T03:00:08.865Z,9.50
2022-10-06T03:02:37.205Z,11.60
2022-10-06T03:05:05.906Z,9.00
2022-10-06T03:07:34.902Z,9.70
2022-10-06T03:10:04.381Z,8.70
2022-10-06T03:12:34.549Z,9.20
2022-10-06T03:15:03.455Z,11.00
2022-10-06T03:17:32.136Z,10.60
2022-10-06T03:19:59.774Z,10.00
2022-10-06T03:22:28.057Z,9.60
2022-10-06T03:24:58.536Z,9.30
2022-10-06T03:27:27.346Z,9.70
2022-10-06T03:30:00.194Z,9.70
2022-10-06T03:32:28.525Z,10.00
2022-10-06T03:34:56.015Z,9.30
2022-10-06T03:37:23.776Z,9.20
2022-10-06T03:39:51.463Z,7.80
2022-10-06T03:42:19.409Z,9.50
2022-10-06T03:44:47.561Z,10.00
2022-10-06T03:47:17.438Z,11.70
2022-10-06T03:49:45.867Z,10.00
2022-10-06T03:52:14.574Z,10.20
2022-10-06T03:54:42.915Z,11.80
2022-10-06T03:57:11.967Z,10.50
2022-10-06T03:59:41.350Z,9.90
2022-10-06T04:02:10.992Z,10.20
2022-10-06T04:04:38.475Z,9.90
2022-10-06T04:07:10.883Z,11.10
2022-10-06T04:09:39.571Z,12.40
2022-10-06T04:12:06.865Z,12.80
2022-10-06T04:14:37.468Z,13.10
2022-10-06T04:17:06.641Z,13.10
2022-10-06T04:19:39.626Z,11.90
2022-10-06T04:22:09.471Z,10.90
2022-10-06T04:24:37.187Z,8.80
2022-10-06T04:27:22.749Z,10.80
2022-10-06T04:30:08.806Z,11.50
2022-10-06T04:32:40.764Z,15.50
2022-10-06T04:35:23.064Z,20.10
2022-10-06T04:40:33.968Z,20.50
2022-10-06T04:43:04.665Z,20.00
2022-10-06T04:45:34.233Z,19.40
2022-10-06T04:48:02.181Z,16.80
2022-10-06T04:50:36.565Z,17.90
2022-10-06T04:53:09.465Z,15.90
2022-10-06T04:55:37.935Z,13.70
2022-10-06T04:58:06.614Z,13.60
2022-10-06T05:00:36.102Z,13.90
2022-10-06T05:03:04.126Z,12.30
2022-10-06T05:05:31.940Z,14.20
2022-10-06T05:08:09.466Z,11.70
2022-10-06T05:10:44.164Z,10.30
2022-10-06T05:13:13.674Z,14.50
2022-10-06T05:15:41.430Z,13.00
2022-10-06T05:18:10.012Z,14.00
2022-10-06T05:20:37.781Z,15.30
2022-10-06T05:23:07.209Z,13.20
2022-10-06T05:25:34.837Z,8.50
2022-10-06T05:28:02.154Z,13.70
2022-10-06T05:30:29.445Z,8.10
2022-10-06T05:32:57.113Z,12.00
2022-10-06T05:35:26.067Z,9.50
2022-10-06T05:37:54.615Z,9.80
2022-10-06T05:40:23.375Z,10.50
2022-10-06T05:42:51.030Z,12.40
2022-10-06T05:45:18.505Z,13.10
2022-10-06T05:47:46.762Z,15.50
2022-10-06T05:50:14.712Z,16.60
2022-10-06T05:52:42.153Z,15.30
2022-10-06T05:55:09.888Z,13.30
2022-10-06T05:57:37.505Z,11.90
2022-10-06T06:00:06.193Z,10.70
2022-10-06T06:02:40.382Z,11.20
2022-10-06T06:05:08.889Z,10.10
2022-10-06T06:07:36.353Z,9.40
2022-10-06T06:10:04.732Z,7.00
2022-10-06T06:12:32.163Z,6.20
2022-10-06T06:15:38.306Z,7.00
2022-10-06T06:18:05.923Z,9.10
2022-10-06T06:20:33.363Z,9.00
2022-10-06T06:23:00.926Z,9.60
2022-10-06T06:25:28.842Z,12.10
2022-10-06T06:27:56.624Z,10.40
2022-10-06T06:30:25.854Z,10.80
2022-10-06T06:32:58.221Z,11.70
2022-10-06T06:35:25.688Z,16.40
2022-10-06T06:37:53.157Z,17.10
2022-10-06T06:40:21.518Z,10.70
2022-10-06T06:42:53.665Z,12.10
2022-10-06T06:46:04.813Z,10.40
2022-10-06T06:48:53.263Z,9.20
2022-10-06T06:51:25.376Z,8.70
2022-10-06T06:53:53.654Z,7.30
2022-10-06T06:56:21.623Z,7.30
2022-10-06T06:58:50.621Z,6.20
2022-10-06T07:01:22.118Z,5.90
2022-10-06T07:03:58.907Z,6.20
2022-10-06T07:06:31.624Z,5.60
2022-10-06T07:09:01.132Z,6.30
2022-10-06T07:11:31.393Z,6.20
2022-10-06T07:14:08.026Z,5.60
2022-10-06T07:16:54.230Z,5.40
2022-10-06T07:19:40.419Z,5.90
2022-10-06T07:22:26.914Z,5.40
2022-10-06T07:25:13.631Z,5.30
2022-10-06T07:27:51.721Z,5.00
2022-10-06T07:30:30.045Z,5.70
2022-10-06T07:33:04.734Z,5.30
2022-10-06T07:35:32.733Z,4.70
2022-10-06T07:38:07.461Z,5.10
2022-10-06T07:40:46.288Z,4.50
2022-10-06T07:43:23.982Z,4.90
2022-10-06T07:45:52.414Z,4.40
2022-10-06T07:48:40.468Z,4.20
2022-10-06T07:51:19.432Z,4.10
2022-10-06T07:53:50.569Z,4.10
2022-10-06T07:56:24.176Z,3.50
2022-10-06T07:58:56.047Z,3.80
2022-10-06T08:01:25.383Z,3.30
2022-10-06T08:03:52.785Z,3.90
2022-10-06T08:06:20.286Z,4.30
2022-10-06T08:08:52.479Z,3.80
2022-10-06T08:11:22.421Z,3.60
2022-10-06T08:16:22.253Z,3.80
2022-10-06T08:18:54.694Z,3.50
2022-10-06T08:21:25.159Z,4.00
2022-10-06T08:23:54.510Z,3.00
2022-10-06T08:26:23.116Z,4.00
2022-10-06T08:28:53.454Z,3.60
2022-10-06T08:31:23.149Z,3.40
2022-10-06T08:33:56.346Z,3.60
2022-10-06T08:36:30.918Z,2.60
2022-10-06T08:38:59.981Z,3.00
2022-10-06T08:41:41.850Z,3.40
2022-10-06T08:44:19.196Z,3.50
2022-10-06T08:46:54.584Z,3.40
2022-10-06T08:49:26.453Z,3.40
2022-10-06T08:52:14.830Z,3.10
2022-10-06T08:54:58.863Z,3.30
2022-10-06T08:57:41.181Z,3.50
2022-10-06T09:00:18.078Z,3.50
2022-10-06T09:02:50.021Z,2.80
2022-10-06T09:05:26.188Z,3.70
2022-10-06T09:08:37.769Z,3.50
2022-10-06T09:11:24.106Z,4.50
2022-10-06T09:14:01.857Z,4.80
2022-10-06T09:16:36.686Z,4.00
2022-10-06T09:19:20.760Z,4.60
2022-10-06T09:21:52.992Z,5.30
2022-10-06T09:24:34.288Z,5.60
2022-10-06T09:27:23.714Z,4.30
2022-10-06T09:29:51.552Z,5.40
2022-10-06T09:32:21.821Z,5.20
2022-10-06T09:34:51.252Z,5.20
2022-10-06T09:37:19.474Z,5.00
2022-10-06T09:39:50.414Z,4.20
2022-10-06T09:42:35.329Z,4.30
2022-10-06T09:45:07.540Z,3.60
2022-10-06T09:47:38.954Z,3.40
2022-10-06T09:50:11.879Z,2.50
2022-10-06T09:53:06.575Z,2.10
2022-10-06T09:55:45.335Z,2.00
2022-10-06T09:58:31.120Z,1.50
2022-10-06T10:01:11.633Z,1.70
2022-10-06T10:04:18.728Z,2.10
2022-10-06T10:06:42.218Z,3.00
2022-10-06T10:09:16.670Z,2.70
2022-10-06T10:12:17.925Z,2.90
2022-10-06T10:14:45.376Z,2.40
2022-10-06T10:17:19.947Z,2.00
2022-10-06T10:19:53.145Z,3.50
2022-10-06T10:22:30.886Z,3.00
2022-10-06T10:25:07.661Z,2.90
2022-10-06T10:27:49.216Z,2.10
2022-10-06T10:30:16.860Z,2.30
2022-10-06T10:33:16.471Z,2.50
2022-10-06T10:35:51.455Z,2.10
2022-10-06T10:38:21.962Z,2.40
2022-10-06T10:41:08.994Z,2.70
2022-10-06T10:43:45.941Z,2.50
2022-10-06T10:46:46.319Z,3.10
2022-10-06T10:49:19.897Z,3.10
2022-10-06T10:51:50.955Z,3.30
2022-10-06T10:54:30.250Z,3.30
2022-10-06T10:56:58.677Z,3.80
2022-10-06T10:59:34.822Z,2.80
2022-10-06T11:02:22.398Z,2.60
2022-10-06T11:05:03.277Z,2.50
2022-10-06T11:07:44.153Z,3.20
2022-10-06T11:10:26.370Z,2.40
2022-10-06T11:13:24.064Z,2.00
2022-10-06T11:16:41.727Z,2.80
2022-10-06T11:19:27.265Z,2.70
2022-10-06T11:22:02.593Z,2.00
2022-10-06T11:24:31.496Z,2.10
2022-10-06T11:27:27.242Z,1.70
2022-10-06T11:30:06.085Z,2.30
2022-10-06T11:32:44.975Z,2.60
2022-10-06T11:38:02.464Z,2.40
2022-10-06T11:40:47.668Z,1.70
2022-10-06T11:43:22.965Z,1.90
2022-10-06T11:46:21.377Z,2.60
2022-10-06T11:51:25.510Z,2.50
2022-10-06T11:53:58.958Z,2.90
2022-10-06T11:56:38.918Z,4.10
2022-10-06T11:59:32.072Z,3.90
2022-10-06T12:02:00.508Z,2.80
2022-10-06T12:04:28.591Z,2.80
2022-10-06T12:06:57.662Z,2.20
2022-10-06T12:09:44.780Z,2.60
2022-10-06T12:12:14.929Z,2.60
2022-10-06T12:18:36.675Z,2.50
2022-10-06T12:21:13.568Z,2.20
2022-10-06T12:23:58.120Z,2.50
2022-10-06T12:26:51.434Z,2.00
2022-10-06T12:29:37.657Z,1.80
2022-10-06T12:32:13.941Z,1.70
2022-10-06T12:34:45.665Z,1.40
2022-10-06T12:37:31.426Z,1.20
2022-10-06T12:40:43.877Z,1.70
2022-10-06T12:43:14.090Z,1.70
2022-10-06T12:45:46.700Z,1.90
2022-10-06T12:48:20.685Z,1.50
2022-10-06T12:50:53.192Z,1.60
2022-10-06T12:53:28.321Z,1.60
2022-10-06T12:56:02.346Z,1.30
2022-10-06T12:58:32.083Z,1.80
2022-10-06T13:01:12.783Z,1.50
2022-10-06T13:03:40.024Z,1.40
2022-10-06T13:06:09.091Z,2.00
2022-10-06T13:08:38.628Z,2.00
2022-10-06T13:11:24.510Z,1.20
2022-10-06T13:13:56.854Z,1.60
2022-10-06T13:16:28.550Z,1.70
2022-10-06T13:18:58.448Z,1.80
2022-10-06T13:21:26.195Z,1.80
2022-10-06T13:23:53.530Z,1.80
2022-10-06T13:26:21.425Z,1.40
2022-10-06T13:28:51.900Z,1.90
2022-10-06T13:31:23.616Z,1.90
2022-10-06T13:34:20.807Z,1.70
2022-10-06T13:36:50.823Z,1.90
2022-10-06T13:39:20.845Z,2.30
2022-10-06T13:42:10.124Z,1.50
2022-10-06T13:44:39.706Z,1.80
2022-10-06T13:47:18.845Z,1.60
2022-10-06T13:50:03.746Z,1.10
2022-10-06T13:52:43.344Z,1.00
2022-10-06T13:55:21.377Z,1.50
2022-10-06T13:58:01.994Z,1.30
2022-10-06T14:00:46.165Z,1.20
2022-10-06T14:06:16.515Z,1.20
2022-10-06T14:08:55.024Z,1.50
2022-10-06T14:11:28.785Z,1.50
2022-10-06T14:13:59.006Z,1.40
2022-10-06T14:16:28.273Z,1.40
2022-10-06T14:18:59.585Z,1.50
2022-10-06T14:21:36.165Z,1.50
2022-10-06T14:24:15.809Z,1.30
2022-10-06T14:26:44.733Z,1.80
2022-10-06T14:29:18.661Z,1.60
2022-10-06T14:31:46.805Z,1.80
2022-10-06T14:34:17.245Z,1.90
2022-10-06T14:36:47.019Z,1.60
2022-10-06T14:39:15.722Z,1.90
2022-10-06T14:41:45.078Z,1.90
2022-10-06T14:46:41.928Z,1.90
2022-10-06T14:49:13.289Z,1.90
2022-10-06T14:51:43.146Z,2.10
2022-10-06T14:54:11.641Z,2.10
2022-10-06T14:56:39.891Z,2.90
2022-10-06T14:59:10.115Z,1.90
2022-10-06T15:01:40.153Z,1.80
2022-10-06T15:04:12.630Z,1.80
2022-10-06T15:06:58.929Z,2.10
2022-10-06T15:09:29.624Z,2.00
2022-10-06T15:11:59.438Z,2.30
2022-10-06T15:14:29.196Z,2.20
2022-10-06T15:19:27.148Z,2.40
2022-10-06T15:21:54.312Z,1.90
2022-10-06T15:24:22.811Z,2.30
2022-10-06T15:27:08.774Z,2.40
2022-10-06T15:29:36.128Z,2.40
2022-10-06T15:32:05.824Z,2.30
2022-10-06T15:34:34.182Z,2.30
2022-10-06T15:37:02.390Z,2.50
2022-10-06T15:39:31.692Z,2.50
2022-10-06T15:41:59.003Z,2.50
2022-10-06T15:44:26.591Z,2.50
2022-10-06T15:46:56.101Z,2.90
2022-10-06T15:49:29.255Z,3.10
2022-10-06T15:51:59.649Z,3.40
2022-10-06T15:54:29.827Z,3.50
2022-10-06T15:57:02.153Z,2.90
2022-10-06T15:59:32.076Z,3.40
2022-10-06T16:02:03.510Z,3.70
2022-10-06T16:04:39.627Z,3.90
2022-10-06T16:07:07.894Z,3.40
2022-10-06T16:09:43.364Z,3.60
2022-10-06T16:12:17.663Z,3.20
2022-10-06T16:14:45.215Z,3.60
2022-10-06T16:17:13.696Z,3.70
2022-10-06T16:19:41.218Z,3.50
2022-10-06T16:22:11.465Z,4.90
2022-10-06T16:24:38.871Z,4.30
2022-10-06T16:27:06.901Z,6.70
2022-10-06T16:29:34.397Z,6.00
2022-10-06T16:32:03.637Z,5.10
2022-10-06T16:34:38.242Z,5.50
2022-10-06T16:37:12.833Z,5.70
2022-10-06T16:39:42.220Z,6.20
2022-10-06T16:42:09.769Z,5.20
2022-10-06T16:44:36.804Z,5.20
2022-10-06T16:47:04.014Z,5.60
2022-10-06T16:49:31.191Z,5.30
2022-10-06T16:52:16.373Z,12.50
2022-10-06T16:54:49.249Z,13.80
2022-10-06T16:57:16.380Z,16.10
2022-10-06T16:59:46.888Z,14.10
2022-10-06T17:02:14.390Z,15.20
2022-10-06T17:04:41.461Z,13.10
2022-10-06T17:07:09.065Z,15.10
2022-10-06T17:09:36.789Z,12.30
2022-10-06T17:12:04.445Z,11.90
2022-10-06T17:14:34.265Z,13.30
2022-10-06T17:17:01.617Z,10.00
2022-10-06T17:19:29.873Z,10.70
2022-10-06T17:21:59.464Z,10.00
2022-10-06T17:24:30.975Z,9.50
2022-10-06T17:26:58.579Z,7.60
2022-10-06T17:29:26.734Z,7.20
2022-10-06T17:31:58.091Z,9.80
2022-10-06T17:34:30.447Z,11.90
2022-10-06T17:37:00.670Z,13.30
2022-10-06T17:39:27.870Z,14.60
2022-10-06T17:41:56.361Z,20.90
2022-10-06T17:44:28.273Z,22.30
2022-10-06T17:46:58.019Z,23.30
2022-10-06T17:49:25.832Z,17.50
2022-10-06T17:51:54.724Z,15.10
2022-10-06T17:54:24.439Z,15.40
2022-10-06T17:56:55.201Z,13.60
2022-10-06T18:00:18.406Z,13.30
2022-10-06T18:02:47.145Z,14.30
2022-10-06T18:05:15.547Z,13.60
2022-10-06T18:07:43.942Z,13.40
2022-10-06T18:10:31.092Z,11.60
2022-10-06T18:12:59.655Z,12.60
2022-10-06T18:15:27.973Z,12.50
2022-10-06T18:17:56.352Z,14.90
2022-10-06T18:20:30.397Z,14.10
2022-10-06T18:22:59.011Z,18.00
2022-10-06T18:25:28.177Z,22.20
2022-10-06T18:27:56.698Z,23.30
2022-10-06T18:30:29.332Z,26.60
2022-10-06T18:36:14.648Z,21.20
2022-10-06T18:38:45.888Z,23.00
2022-10-06T18:41:17.850Z,18.70
2022-10-06T18:43:46.451Z,16.80
2022-10-06T18:46:35.072Z,17.20
2022-10-06T18:49:12.464Z,15.70
2022-10-06T18:52:00.586Z,19.70
2022-10-06T18:54:34.584Z,24.50
2022-10-06T18:57:04.750Z,23.40
2022-10-06T18:59:35.391Z,25.30
2022-10-06T19:02:05.559Z,19.80
2022-10-06T19:04:35.956Z,14.80
2022-10-06T19:09:32.665Z,10.40
2022-10-06T19:12:02.092Z,10.30
2022-10-06T19:14:36.932Z,14.20
2022-10-06T19:17:09.565Z,13.00
2022-10-06T19:19:38.567Z,18.30
2022-10-06T19:22:07.366Z,17.00
2022-10-06T19:24:41.502Z,16.80
2022-10-06T19:27:13.503Z,18.50
2022-10-06T19:29:46.297Z,19.80
2022-10-06T19:32:17.202Z,12.80
2022-10-06T19:34:47.541Z,13.40
2022-10-06T19:39:47.188Z,13.90
2022-10-06T19:42:37.735Z,16.00
2022-10-06T19:45:08.029Z,16.00
2022-10-06T19:47:36.379Z,12.50
2022-10-06T19:50:12.619Z,15.80
2022-10-06T19:52:42.283Z,12.40
2022-10-06T19:55:10.747Z,10.80
2022-10-06T19:57:39.383Z,11.70
2022-10-06T20:00:10.403Z,15.80
2022-10-06T20:02:44.391Z,16.80
2022-10-06T20:05:15.838Z,16.70
2022-10-06T20:07:46.244Z,18.80
2022-10-06T20:10:16.091Z,14.70
2022-10-06T20:12:44.601Z,12.30
2022-10-06T20:15:13.106Z,11.20
2022-10-06T20:17:42.609Z,9.70
2022-10-06T20:20:11.842Z,9.00
2022-10-06T20:22:40.402Z,16.30
2022-10-06T20:25:08.944Z,16.60
2022-10-06T20:27:37.707Z,11.90
2022-10-06T20:30:06.985Z,14.90
2022-10-06T20:32:35.793Z,9.70
2022-10-06T20:35:09.334Z,14.30
2022-10-06T20:37:42.360Z,17.50
2022-10-06T20:40:29.615Z,17.00
2022-10-06T20:42:59.608Z,14.00
2022-10-06T20:45:30.453Z,15.50
2022-10-06T20:48:00.408Z,17.00
2022-10-06T20:50:34.229Z,17.40
2022-10-06T20:53:07.493Z,16.70
2022-10-06T20:55:36.208Z,14.10
2022-10-06T20:58:04.845Z,19.70
2022-10-06T21:00:33.303Z,23.40
2022-10-06T21:03:03.131Z,21.30
2022-10-06T21:05:33.382Z,23.20
2022-10-06T21:10:30.743Z,20.90
2022-10-06T21:12:59.355Z,17.50
2022-10-06T21:15:27.976Z,13.60
2022-10-06T21:17:56.757Z,12.70
2022-10-06T21:20:25.669Z,11.90
2022-10-06T21:22:54.662Z,10.30
2022-10-06T21:25:23.314Z,9.50
2022-10-06T21:27:52.233Z,9.30
2022-10-06T21:30:20.814Z,10.70
2022-10-06T21:32:49.775Z,13.50
2022-10-06T21:35:18.407Z,13.00
2022-10-06T21:37:47.355Z,15.50
2022-10-06T21:40:16.152Z,16.70
2022-10-06T21:42:45.135Z,17.20
2022-10-06T21:45:13.838Z,16.60
2022-10-06T21:47:43.357Z,16.40
2022-10-06T21:50:12.901Z,21.90
2022-10-06T21:52:41.669Z,19.90
2022-10-06T21:55:10.644Z,20.30
2022-10-06T21:57:40.114Z,16.90
2022-10-06T22:00:11.328Z,14.40
2022-10-06T22:02:44.246Z,11.60
2022-10-06T22:05:14.282Z,15.00
2022-10-06T22:10:13.411Z,12.60
2022-10-06T22:12:43.856Z,13.70
2022-10-06T22:15:13.671Z,12.30
2022-10-06T22:20:11.983Z,12.70
2022-10-06T22:22:41.041Z,14.70
2022-10-06T22:25:09.834Z,14.50
2022-10-06T22:27:39.537Z,13.90
2022-10-06T22:30:10.595Z,14.30
2022-10-06T22:32:40.212Z,12.90
2022-10-06T22:35:10.690Z,16.50
2022-10-06T22:37:39.831Z,12.70
2022-10-06T22:40:10.166Z,13.00
2022-10-06T22:42:39.664Z,12.30
2022-10-06T22:45:11.115Z,13.80
2022-10-06T22:47:41.588Z,13.60
2022-10-06T22:50:15.605Z,13.20
2022-10-06T22:52:45.952Z,12.00
2022-10-06T22:55:15.265Z,12.60
2022-10-06T22:57:50.497Z,11.20
2022-10-06T23:00:20.851Z,10.70
2022-10-06T23:02:50.267Z,10.60
2022-10-06T23:05:19.205Z,11.30
2022-10-06T23:07:48.915Z,10.50
2022-10-06T23:10:19.944Z,13.10
2022-10-06T23:12:53.174Z,13.40
2022-10-06T23:15:23.387Z,12.60
2022-10-06T23:17:54.112Z,11.50
2022-10-06T23:20:23.841Z,11.80
2022-10-06T23:22:57.034Z,8.30
2022-10-06T23:25:27.527Z,9.30
2022-10-06T23:27:56.943Z,9.80
2022-10-06T23:30:26.232Z,13.20
2022-10-06T23:32:56.854Z,12.20
2022-10-06T23:35:26.743Z,11.00
2022-10-06T23:37:58.383Z,12.40
2022-10-06T23:40:28.565Z,11.60
2022-10-06T23:42:59.651Z,11.90
2022-10-06T23:45:29.619Z,13.50
2022-10-06T23:48:01.244Z,17.80
2022-10-06T23:50:33.508Z,15.50
2022-10-06T23:53:04.150Z,15.90
2022-10-06T23:58:05.486Z,15.10
